sensor_id;sensor_type;location;lat;lon;timestamp;temperature;humidity
17859;DHT22;35426;30.698;104.050;2023-03-23T00:02:30;12.60;99.90
17859;DHT22;35426;30.698;104.050;2023-03-23T00:05:10;12.60;99.90
17859;DHT22;35426;30.698;104.050;2023-03-23T00:07:46;12.70;99.90
17859;DHT22;35426;30.698;104.050;2023-03-23T00:10:22;12.40;99.90
17859;DHT22;35426;30.698;104.050;2023-03-23T00:13:04;12.30;99.90
17859;DHT22;35426;30.698;104.050;2023-03-23T00:15:40;12.10;99.90
17859;DHT22;35426;30.698;104.050;2023-03-23T00:18:20;12.10;99.90
17859;DHT22;35426;30.698;104.050;2023-03-23T00:20:56;12.10;99.90
17859;DHT22;35426;30.698;104.050;2023-03-23T00:23:31;12.00;99.90
17859;DHT22;35426;30.698;104.050;2023-03-23T00:26:08;11.90;99.90
17859;DHT22;35426;30.698;104.050;2023-03-23T00:28:48;12.20;99.90
17859;DHT22;35426;30.698;104.050;2023-03-23T00:31:24;12.20;99.90
17859;DHT22;35426;30.698;104.050;2023-03-23T00:34:03;12.40;99.90
17859;DHT22;35426;30.698;104.050;2023-03-23T00:36:38;12.40;99.90
17859;DHT22;35426;30.698;104.050;2023-03-23T00:39:28;12.60;99.90
17859;DHT22;35426;30.698;104.050;2023-03-23T00:42:07;12.30;99.90
17859;DHT22;35426;30.698;104.050;2023-03-23T00:44:47;12.30;99.90
17859;DHT22;35426;30.698;104.050;2023-03-23T00:47:30;12.10;99.90
17859;DHT22;35426;30.698;104.050;2023-03-23T00:50:07;12.30;99.90
17859;DHT22;35426;30.698;104.050;2023-03-23T00:52:45;12.40;99.90
17859;DHT22;35426;30.698;104.050;2023-03-23T00:55:24;12.50;99.90
17859;DHT22;35426;30.698;104.050;2023-03-23T00:58:05;12.50;99.90
17859;DHT22;35426;30.698;104.050;2023-03-23T01:00:52;12.40;99.90
17859;DHT22;35426;30.698;104.050;2023-03-23T01:03:31;12.50;99.90
17859;DHT22;35426;30.698;104.050;2023-03-23T01:06:12;12.30;99.90
17859;DHT22;35426;30.698;104.050;2023-03-23T01:08:50;12.00;99.90
17859;DHT22;35426;30.698;104.050;2023-03-23T01:11:30;12.30;99.90
17859;DHT22;35426;30.698;104.050;2023-03-23T01:14:05;12.40;99.90
17859;DHT22;35426;30.698;104.050;2023-03-23T01:16:46;12.30;99.90
17859;DHT22;35426;30.698;104.050;2023-03-23T01:19:24;12.50;99.90
17859;DHT22;35426;30.698;104.050;2023-03-23T01:21:59;12.60;99.90
17859;DHT22;35426;30.698;104.050;2023-03-23T01:24:37;12.50;99.90
17859;DHT22;35426;30.698;104.050;2023-03-23T01:27:12;12.40;99.90
17859;DHT22;35426;30.698;104.050;2023-03-23T01:29:49;12.50;99.90
17859;DHT22;35426;30.698;104.050;2023-03-23T01:32:29;12.50;99.90
17859;DHT22;35426;30.698;104.050;2023-03-23T01:35:05;12.40;99.90
17859;DHT22;35426;30.698;104.050;2023-03-23T01:37:48;12.50;99.90
17859;DHT22;35426;30.698;104.050;2023-03-23T01:40:26;12.40;99.90
17859;DHT22;35426;30.698;104.050;2023-03-23T01:43:01;12.60;99.90
17859;DHT22;35426;30.698;104.050;2023-03-23T01:45:40;12.70;99.90
17859;DHT22;35426;30.698;104.050;2023-03-23T01:48:25;12.80;99.90
17859;DHT22;35426;30.698;104.050;2023-03-23T01:51:09;12.80;99.90
17859;DHT22;35426;30.698;104.050;2023-03-23T01:53:54;12.90;99.90
17859;DHT22;35426;30.698;104.050;2023-03-23T01:56:37;12.80;99.90
17859;DHT22;35426;30.698;104.050;2023-03-23T01:59:16;12.70;99.90
17859;DHT22;35426;30.698;104.050;2023-03-23T02:02:06;12.60;99.90
17859;DHT22;35426;30.698;104.050;2023-03-23T02:04:46;12.60;99.90
17859;DHT22;35426;30.698;104.050;2023-03-23T02:07:41;12.40;99.90
17859;DHT22;35426;30.698;104.050;2023-03-23T02:10:22;12.60;99.90
17859;DHT22;35426;30.698;104.050;2023-03-23T02:12:58;12.80;99.90
17859;DHT22;35426;30.698;104.050;2023-03-23T02:15:39;12.80;99.90
17859;DHT22;35426;30.698;104.050;2023-03-23T02:18:34;12.70;99.90
17859;DHT22;35426;30.698;104.050;2023-03-23T02:24:52;12.70;99.90
17859;DHT22;35426;30.698;104.050;2023-03-23T02:30:36;12.70;99.90
17859;DHT22;35426;30.698;104.050;2023-03-23T02:33:39;12.60;99.90
17859;DHT22;35426;30.698;104.050;2023-03-23T02:36:22;12.70;99.90
17859;DHT22;35426;30.698;104.050;2023-03-23T02:39:03;12.40;99.90
17859;DHT22;35426;30.698;104.050;2023-03-23T02:41:42;12.60;99.90
17859;DHT22;35426;30.698;104.050;2023-03-23T02:44:18;12.80;99.90
17859;DHT22;35426;30.698;104.050;2023-03-23T02:46:58;12.90;99.90
17859;DHT22;35426;30.698;104.050;2023-03-23T02:49:46;12.60;99.90
17859;DHT22;35426;30.698;104.050;2023-03-23T02:52:29;12.60;99.90
17859;DHT22;35426;30.698;104.050;2023-03-23T02:55:08;12.40;99.90
17859;DHT22;35426;30.698;104.050;2023-03-23T02:57:44;12.60;99.90
17859;DHT22;35426;30.698;104.050;2023-03-23T03:00:22;12.40;99.90
17859;DHT22;35426;30.698;104.050;2023-03-23T03:02:58;12.30;99.90
17859;DHT22;35426;30.698;104.050;2023-03-23T03:05:52;12.20;99.90
17859;DHT22;35426;30.698;104.050;2023-03-23T03:08:38;12.40;99.90
17859;DHT22;35426;30.698;104.050;2023-03-23T03:11:20;12.40;99.90
17859;DHT22;35426;30.698;104.050;2023-03-23T03:14:00;12.50;99.90
17859;DHT22;35426;30.698;104.050;2023-03-23T03:16:44;12.40;99.90
17859;DHT22;35426;30.698;104.050;2023-03-23T03:19:24;12.70;99.90
17859;DHT22;35426;30.698;104.050;2023-03-23T03:22:05;12.90;99.90
17859;DHT22;35426;30.698;104.050;2023-03-23T03:24:45;13.00;99.90
17859;DHT22;35426;30.698;104.050;2023-03-23T03:27:25;13.10;99.90
17859;DHT22;35426;30.698;104.050;2023-03-23T03:30:13;13.10;99.90
17859;DHT22;35426;30.698;104.050;2023-03-23T03:32:55;13.30;99.90
17859;DHT22;35426;30.698;104.050;2023-03-23T03:35:34;13.50;99.90
17859;DHT22;35426;30.698;104.050;2023-03-23T03:38:12;13.70;99.90
17859;DHT22;35426;30.698;104.050;2023-03-23T03:40:59;13.70;99.90
17859;DHT22;35426;30.698;104.050;2023-03-23T03:43:34;13.50;99.90
17859;DHT22;35426;30.698;104.050;2023-03-23T03:46:10;13.70;99.90
17859;DHT22;35426;30.698;104.050;2023-03-23T03:48:48;13.60;99.90
17859;DHT22;35426;30.698;104.050;2023-03-23T03:51:29;13.90;99.90
17859;DHT22;35426;30.698;104.050;2023-03-23T03:54:07;13.90;99.90
17859;DHT22;35426;30.698;104.050;2023-03-23T03:56:42;14.20;99.90
17859;DHT22;35426;30.698;104.050;2023-03-23T03:59:36;14.30;99.90
17859;DHT22;35426;30.698;104.050;2023-03-23T04:02:42;14.70;99.90
17859;DHT22;35426;30.698;104.050;2023-03-23T04:05:20;15.00;99.90
17859;DHT22;35426;30.698;104.050;2023-03-23T04:08:01;15.10;99.90
17859;DHT22;35426;30.698;104.050;2023-03-23T04:10:50;15.20;99.90
17859;DHT22;35426;30.698;104.050;2023-03-23T04:13:40;15.40;99.90
17859;DHT22;35426;30.698;104.050;2023-03-23T04:16:24;15.10;99.90
17859;DHT22;35426;30.698;104.050;2023-03-23T04:19:19;15.40;99.90
17859;DHT22;35426;30.698;104.050;2023-03-23T04:21:55;15.70;99.90
17859;DHT22;35426;30.698;104.050;2023-03-23T04:24:34;15.60;99.90
17859;DHT22;35426;30.698;104.050;2023-03-23T04:27:29;15.90;99.90
17859;DHT22;35426;30.698;104.050;2023-03-23T04:30:10;15.70;99.90
17859;DHT22;35426;30.698;104.050;2023-03-23T04:32:58;15.50;99.90
17859;DHT22;35426;30.698;104.050;2023-03-23T04:35:35;15.60;99.90
17859;DHT22;35426;30.698;104.050;2023-03-23T04:38:35;16.00;99.90
17859;DHT22;35426;30.698;104.050;2023-03-23T04:41:19;15.60;99.90
17859;DHT22;35426;30.698;104.050;2023-03-23T04:44:20;15.70;99.90
17859;DHT22;35426;30.698;104.050;2023-03-23T04:47:07;16.20;99.90
17859;DHT22;35426;30.698;104.050;2023-03-23T04:49:56;16.10;99.90
17859;DHT22;35426;30.698;104.050;2023-03-23T04:52:43;16.30;99.90
17859;DHT22;35426;30.698;104.050;2023-03-23T04:55:20;16.60;99.90
17859;DHT22;35426;30.698;104.050;2023-03-23T04:58:00;15.90;99.90
17859;DHT22;35426;30.698;104.050;2023-03-23T05:00:49;16.00;99.90
17859;DHT22;35426;30.698;104.050;2023-03-23T05:03:38;16.00;99.90
17859;DHT22;35426;30.698;104.050;2023-03-23T05:06:14;16.00;99.90
17859;DHT22;35426;30.698;104.050;2023-03-23T05:08:50;16.00;99.90
17859;DHT22;35426;30.698;104.050;2023-03-23T05:11:26;16.10;99.90
17859;DHT22;35426;30.698;104.050;2023-03-23T05:14:01;16.50;99.90
17859;DHT22;35426;30.698;104.050;2023-03-23T05:16:40;16.70;99.90
17859;DHT22;35426;30.698;104.050;2023-03-23T05:19:22;16.60;99.90
17859;DHT22;35426;30.698;104.050;2023-03-23T05:22:01;17.00;99.90
17859;DHT22;35426;30.698;104.050;2023-03-23T05:24:47;16.70;99.90
17859;DHT22;35426;30.698;104.050;2023-03-23T05:27:25;16.10;99.90
17859;DHT22;35426;30.698;104.050;2023-03-23T05:30:09;16.40;99.90
17859;DHT22;35426;30.698;104.050;2023-03-23T05:32:52;16.30;99.90
17859;DHT22;35426;30.698;104.050;2023-03-23T05:35:42;16.50;99.90
17859;DHT22;35426;30.698;104.050;2023-03-23T05:38:20;16.50;99.90
17859;DHT22;35426;30.698;104.050;2023-03-23T05:41:05;16.00;99.90
17859;DHT22;35426;30.698;104.050;2023-03-23T05:43:50;16.10;99.90
17859;DHT22;35426;30.698;104.050;2023-03-23T05:46:36;15.70;99.90
17859;DHT22;35426;30.698;104.050;2023-03-23T05:49:19;16.10;99.90
17859;DHT22;35426;30.698;104.050;2023-03-23T05:51:56;16.50;99.90
17859;DHT22;35426;30.698;104.050;2023-03-23T05:54:52;16.50;99.90
17859;DHT22;35426;30.698;104.050;2023-03-23T05:57:33;16.50;99.90
17859;DHT22;35426;30.698;104.050;2023-03-23T06:00:17;16.50;99.90
17859;DHT22;35426;30.698;104.050;2023-03-23T06:03:02;16.40;99.90
17859;DHT22;35426;30.698;104.050;2023-03-23T06:05:51;16.40;99.90
17859;DHT22;35426;30.698;104.050;2023-03-23T06:08:38;16.20;99.90
17859;DHT22;35426;30.698;104.050;2023-03-23T06:11:13;16.10;99.90
17859;DHT22;35426;30.698;104.050;2023-03-23T06:14:10;15.90;99.90
17859;DHT22;35426;30.698;104.050;2023-03-23T06:16:50;16.00;99.90
17859;DHT22;35426;30.698;104.050;2023-03-23T06:19:27;16.50;99.90
17859;DHT22;35426;30.698;104.050;2023-03-23T06:22:12;17.10;99.90
17859;DHT22;35426;30.698;104.050;2023-03-23T06:25:10;17.30;99.90
17859;DHT22;35426;30.698;104.050;2023-03-23T06:27:49;16.50;99.90
17859;DHT22;35426;30.698;104.050;2023-03-23T06:30:25;16.00;99.90
17859;DHT22;35426;30.698;104.050;2023-03-23T06:33:02;16.10;99.90
17859;DHT22;35426;30.698;104.050;2023-03-23T06:36:01;16.40;99.90
17859;DHT22;35426;30.698;104.050;2023-03-23T06:38:52;16.60;99.90
17859;DHT22;35426;30.698;104.050;2023-03-23T06:41:44;16.50;99.90
17859;DHT22;35426;30.698;104.050;2023-03-23T06:44:23;16.60;99.90
17859;DHT22;35426;30.698;104.050;2023-03-23T06:47:01;16.00;99.90
17859;DHT22;35426;30.698;104.050;2023-03-23T06:49:39;16.10;99.90
17859;DHT22;35426;30.698;104.050;2023-03-23T06:52:26;16.50;99.90
17859;DHT22;35426;30.698;104.050;2023-03-23T06:55:13;16.20;99.90
17859;DHT22;35426;30.698;104.050;2023-03-23T06:57:59;16.50;99.90
17859;DHT22;35426;30.698;104.050;2023-03-23T07:00:35;16.50;99.90
17859;DHT22;35426;30.698;104.050;2023-03-23T07:03:18;16.30;99.90
17859;DHT22;35426;30.698;104.050;2023-03-23T07:05:59;16.30;99.90
17859;DHT22;35426;30.698;104.050;2023-03-23T07:08:39;16.20;99.90
17859;DHT22;35426;30.698;104.050;2023-03-23T07:11:32;16.10;99.90
17859;DHT22;35426;30.698;104.050;2023-03-23T07:14:22;16.50;99.90
17859;DHT22;35426;30.698;104.050;2023-03-23T07:16:59;16.50;99.90
17859;DHT22;35426;30.698;104.050;2023-03-23T07:19:45;16.50;99.90
17859;DHT22;35426;30.698;104.050;2023-03-23T07:22:30;16.40;99.90
17859;DHT22;35426;30.698;104.050;2023-03-23T07:25:19;16.60;99.90
17859;DHT22;35426;30.698;104.050;2023-03-23T07:28:00;16.40;99.90
17859;DHT22;35426;30.698;104.050;2023-03-23T07:30:35;16.20;99.90
17859;DHT22;35426;30.698;104.050;2023-03-23T07:33:14;16.20;99.90
17859;DHT22;35426;30.698;104.050;2023-03-23T07:35:51;16.30;99.90
17859;DHT22;35426;30.698;104.050;2023-03-23T07:38:33;16.20;99.90
17859;DHT22;35426;30.698;104.050;2023-03-23T07:41:12;15.70;99.90
17859;DHT22;35426;30.698;104.050;2023-03-23T07:43:50;15.70;99.90
17859;DHT22;35426;30.698;104.050;2023-03-23T07:46:44;16.00;99.90
17859;DHT22;35426;30.698;104.050;2023-03-23T07:49:25;16.00;99.90
17859;DHT22;35426;30.698;104.050;2023-03-23T07:52:17;15.70;99.90
17859;DHT22;35426;30.698;104.050;2023-03-23T07:54:54;15.70;99.90
17859;DHT22;35426;30.698;104.050;2023-03-23T07:57:48;15.50;99.90
17859;DHT22;35426;30.698;104.050;2023-03-23T08:00:25;15.20;99.90
17859;DHT22;35426;30.698;104.050;2023-03-23T08:03:07;15.10;99.90
17859;DHT22;35426;30.698;104.050;2023-03-23T08:06:19;14.90;99.90
17859;DHT22;35426;30.698;104.050;2023-03-23T08:09:17;14.70;99.90
17859;DHT22;35426;30.698;104.050;2023-03-23T08:12:12;14.70;99.90
17859;DHT22;35426;30.698;104.050;2023-03-23T08:15:22;14.50;99.90
17859;DHT22;35426;30.698;104.050;2023-03-23T08:18:29;14.50;99.90
17859;DHT22;35426;30.698;104.050;2023-03-23T08:21:29;14.50;99.90
17859;DHT22;35426;30.698;104.050;2023-03-23T08:24:21;14.80;99.90
17859;DHT22;35426;30.698;104.050;2023-03-23T08:27:16;14.70;99.90
17859;DHT22;35426;30.698;104.050;2023-03-23T08:30:17;14.90;99.90
17859;DHT22;35426;30.698;104.050;2023-03-23T08:33:17;15.10;99.90
17859;DHT22;35426;30.698;104.050;2023-03-23T08:36:25;15.50;99.90
17859;DHT22;35426;30.698;104.050;2023-03-23T08:39:17;15.60;99.90
17859;DHT22;35426;30.698;104.050;2023-03-23T08:42:12;15.20;99.90
17859;DHT22;35426;30.698;104.050;2023-03-23T08:44:56;14.90;99.90
17859;DHT22;35426;30.698;104.050;2023-03-23T08:47:38;14.90;99.90
17859;DHT22;35426;30.698;104.050;2023-03-23T08:50:35;15.00;99.90
17859;DHT22;35426;30.698;104.050;2023-03-23T08:53:40;15.10;99.90
17859;DHT22;35426;30.698;104.050;2023-03-23T08:56:27;14.80;99.90
17859;DHT22;35426;30.698;104.050;2023-03-23T08:59:20;14.70;99.90
17859;DHT22;35426;30.698;104.050;2023-03-23T09:02:18;14.80;99.90
17859;DHT22;35426;30.698;104.050;2023-03-23T09:05:24;14.70;99.90
17859;DHT22;35426;30.698;104.050;2023-03-23T09:08:25;14.80;99.90
17859;DHT22;35426;30.698;104.050;2023-03-23T09:11:05;14.70;99.90
17859;DHT22;35426;30.698;104.050;2023-03-23T09:13:40;14.50;99.90
17859;DHT22;35426;30.698;104.050;2023-03-23T09:16:17;14.30;99.90
17859;DHT22;35426;30.698;104.050;2023-03-23T09:18:55;14.40;99.90
17859;DHT22;35426;30.698;104.050;2023-03-23T09:21:30;14.40;99.90
17859;DHT22;35426;30.698;104.050;2023-03-23T09:24:13;14.70;99.90
17859;DHT22;35426;30.698;104.050;2023-03-23T09:26:53;14.70;99.90
17859;DHT22;35426;30.698;104.050;2023-03-23T09:29:49;14.70;99.90
17859;DHT22;35426;30.698;104.050;2023-03-23T09:32:33;14.80;99.90
17859;DHT22;35426;30.698;104.050;2023-03-23T09:35:15;14.70;99.90
17859;DHT22;35426;30.698;104.050;2023-03-23T09:37:53;14.90;99.90
17859;DHT22;35426;30.698;104.050;2023-03-23T09:40:43;15.10;99.90
17859;DHT22;35426;30.698;104.050;2023-03-23T09:43:42;15.20;99.90
17859;DHT22;35426;30.698;104.050;2023-03-23T09:46:50;15.10;99.90
17859;DHT22;35426;30.698;104.050;2023-03-23T09:49:37;14.80;99.90
17859;DHT22;35426;30.698;104.050;2023-03-23T09:52:16;14.60;99.90
17859;DHT22;35426;30.698;104.050;2023-03-23T09:54:52;14.60;99.90
17859;DHT22;35426;30.698;104.050;2023-03-23T09:57:36;14.50;99.90
17859;DHT22;35426;30.698;104.050;2023-03-23T10:00:15;14.30;99.90
17859;DHT22;35426;30.698;104.050;2023-03-23T10:02:57;14.60;99.90
17859;DHT22;35426;30.698;104.050;2023-03-23T10:05:39;14.30;99.90
17859;DHT22;35426;30.698;104.050;2023-03-23T10:08:20;14.50;99.90
17859;DHT22;35426;30.698;104.050;2023-03-23T10:11:14;14.20;99.90
17859;DHT22;35426;30.698;104.050;2023-03-23T10:14:10;14.10;99.90
17859;DHT22;35426;30.698;104.050;2023-03-23T10:16:55;14.00;99.90
17859;DHT22;35426;30.698;104.050;2023-03-23T10:19:42;13.90;99.90
17859;DHT22;35426;30.698;104.050;2023-03-23T10:22:25;14.00;99.90
17859;DHT22;35426;30.698;104.050;2023-03-23T10:25:14;14.10;99.90
17859;DHT22;35426;30.698;104.050;2023-03-23T10:27:56;14.10;99.90
17859;DHT22;35426;30.698;104.050;2023-03-23T10:30:43;14.00;99.90
17859;DHT22;35426;30.698;104.050;2023-03-23T10:33:23;14.10;99.90
17859;DHT22;35426;30.698;104.050;2023-03-23T10:36:05;14.20;99.90
17859;DHT22;35426;30.698;104.050;2023-03-23T10:38:47;14.10;99.90
17859;DHT22;35426;30.698;104.050;2023-03-23T10:41:30;14.20;99.90
17859;DHT22;35426;30.698;104.050;2023-03-23T10:44:13;14.20;99.90
17859;DHT22;35426;30.698;104.050;2023-03-23T10:47:01;14.10;99.90
17859;DHT22;35426;30.698;104.050;2023-03-23T10:49:41;13.90;99.90
17859;DHT22;35426;30.698;104.050;2023-03-23T10:52:27;13.80;99.90
17859;DHT22;35426;30.698;104.050;2023-03-23T10:55:08;13.80;99.90
17859;DHT22;35426;30.698;104.050;2023-03-23T10:58:06;13.60;99.90
17859;DHT22;35426;30.698;104.050;2023-03-23T11:00:46;13.50;99.90
17859;DHT22;35426;30.698;104.050;2023-03-23T11:03:39;13.60;99.90
17859;DHT22;35426;30.698;104.050;2023-03-23T11:06:22;13.50;99.90
17859;DHT22;35426;30.698;104.050;2023-03-23T11:09:15;13.60;99.90
17859;DHT22;35426;30.698;104.050;2023-03-23T11:11:55;13.60;99.90
17859;DHT22;35426;30.698;104.050;2023-03-23T11:14:32;13.70;99.90
17859;DHT22;35426;30.698;104.050;2023-03-23T11:17:23;13.70;99.90
17859;DHT22;35426;30.698;104.050;2023-03-23T11:20:12;13.70;99.90
17859;DHT22;35426;30.698;104.050;2023-03-23T11:22:50;13.50;99.90
17859;DHT22;35426;30.698;104.050;2023-03-23T11:25:32;13.50;99.90
17859;DHT22;35426;30.698;104.050;2023-03-23T11:28:10;13.60;99.90
17859;DHT22;35426;30.698;104.050;2023-03-23T11:30:46;13.60;99.90
17859;DHT22;35426;30.698;104.050;2023-03-23T11:33:34;13.50;99.90
17859;DHT22;35426;30.698;104.050;2023-03-23T11:36:18;13.60;99.90
17859;DHT22;35426;30.698;104.050;2023-03-23T11:39:21;13.50;99.90
17859;DHT22;35426;30.698;104.050;2023-03-23T11:41:59;13.60;99.90
17859;DHT22;35426;30.698;104.050;2023-03-23T11:44:46;13.60;99.90
17859;DHT22;35426;30.698;104.050;2023-03-23T11:47:29;13.60;99.90
17859;DHT22;35426;30.698;104.050;2023-03-23T11:50:12;13.60;99.90
17859;DHT22;35426;30.698;104.050;2023-03-23T11:53:06;13.70;99.90
17859;DHT22;35426;30.698;104.050;2023-03-23T11:56:05;13.70;99.90
17859;DHT22;35426;30.698;104.050;2023-03-23T11:58:43;13.80;99.90
17859;DHT22;35426;30.698;104.050;2023-03-23T12:01:37;13.60;99.90
17859;DHT22;35426;30.698;104.050;2023-03-23T12:04:49;13.80;99.90
17859;DHT22;35426;30.698;104.050;2023-03-23T12:07:45;13.90;99.90
17859;DHT22;35426;30.698;104.050;2023-03-23T12:10:34;13.90;99.90
17859;DHT22;35426;30.698;104.050;2023-03-23T12:13:37;14.00;99.90
17859;DHT22;35426;30.698;104.050;2023-03-23T12:16:46;14.00;99.90
17859;DHT22;35426;30.698;104.050;2023-03-23T12:19:42;13.80;99.90
17859;DHT22;35426;30.698;104.050;2023-03-23T12:22:34;13.60;99.90
17859;DHT22;35426;30.698;104.050;2023-03-23T12:28:38;13.80;99.90
17859;DHT22;35426;30.698;104.050;2023-03-23T12:31:33;13.90;99.90
17859;DHT22;35426;30.698;104.050;2023-03-23T12:34:26;14.00;99.90
17859;DHT22;35426;30.698;104.050;2023-03-23T12:40:29;14.20;99.90
17859;DHT22;35426;30.698;104.050;2023-03-23T12:43:24;14.20;99.90
17859;DHT22;35426;30.698;104.050;2023-03-23T12:46:26;13.90;99.90
17859;DHT22;35426;30.698;104.050;2023-03-23T12:49:08;13.80;99.90
17859;DHT22;35426;30.698;104.050;2023-03-23T12:51:59;13.80;99.90
17859;DHT22;35426;30.698;104.050;2023-03-23T12:54:39;13.60;99.90
17859;DHT22;35426;30.698;104.050;2023-03-23T12:57:28;13.60;99.90
17859;DHT22;35426;30.698;104.050;2023-03-23T13:00:14;13.40;99.90
17859;DHT22;35426;30.698;104.050;2023-03-23T13:02:58;13.30;99.90
17859;DHT22;35426;30.698;104.050;2023-03-23T13:05:44;13.40;99.90
17859;DHT22;35426;30.698;104.050;2023-03-23T13:08:30;13.30;99.90
17859;DHT22;35426;30.698;104.050;2023-03-23T13:11:14;13.30;99.90
17859;DHT22;35426;30.698;104.050;2023-03-23T13:13:59;13.40;99.90
17859;DHT22;35426;30.698;104.050;2023-03-23T13:16:49;13.30;99.90
17859;DHT22;35426;30.698;104.050;2023-03-23T13:19:30;13.40;99.90
17859;DHT22;35426;30.698;104.050;2023-03-23T13:22:26;13.50;99.90
17859;DHT22;35426;30.698;104.050;2023-03-23T13:25:19;13.60;99.90
17859;DHT22;35426;30.698;104.050;2023-03-23T13:28:02;13.70;99.90
17859;DHT22;35426;30.698;104.050;2023-03-23T13:30:52;13.80;99.90
17859;DHT22;35426;30.698;104.050;2023-03-23T13:33:32;13.90;99.90
17859;DHT22;35426;30.698;104.050;2023-03-23T13:36:14;13.90;99.90
17859;DHT22;35426;30.698;104.050;2023-03-23T13:38:53;13.90;99.90
17859;DHT22;35426;30.698;104.050;2023-03-23T13:42:00;14.00;99.90
17859;DHT22;35426;30.698;104.050;2023-03-23T13:44:54;14.00;99.90
17859;DHT22;35426;30.698;104.050;2023-03-23T13:47:44;14.00;99.90
17859;DHT22;35426;30.698;104.050;2023-03-23T13:50:49;13.90;99.90
17859;DHT22;35426;30.698;104.050;2023-03-23T13:53:47;13.90;99.90
17859;DHT22;35426;30.698;104.050;2023-03-23T13:56:53;14.00;99.90
17859;DHT22;35426;30.698;104.050;2023-03-23T13:59:49;14.00;99.90
17859;DHT22;35426;30.698;104.050;2023-03-23T14:02:33;13.90;99.90
17859;DHT22;35426;30.698;104.050;2023-03-23T14:08:56;13.90;99.90
17859;DHT22;35426;30.698;104.050;2023-03-23T14:15:01;13.70;99.90
17859;DHT22;35426;30.698;104.050;2023-03-23T14:17:43;13.80;99.90
17859;DHT22;35426;30.698;104.050;2023-03-23T14:20:29;13.80;99.90
17859;DHT22;35426;30.698;104.050;2023-03-23T14:23:14;13.80;99.90
17859;DHT22;35426;30.698;104.050;2023-03-23T14:26:15;13.80;99.90
17859;DHT22;35426;30.698;104.050;2023-03-23T14:28:54;13.80;99.90
17859;DHT22;35426;30.698;104.050;2023-03-23T14:31:37;13.90;99.90
17859;DHT22;35426;30.698;104.050;2023-03-23T14:34:25;13.80;99.90
17859;DHT22;35426;30.698;104.050;2023-03-23T14:37:13;13.80;99.90
17859;DHT22;35426;30.698;104.050;2023-03-23T14:39:59;13.80;99.90
17859;DHT22;35426;30.698;104.050;2023-03-23T14:42:50;13.90;99.90
17859;DHT22;35426;30.698;104.050;2023-03-23T14:45:30;13.90;99.90
17859;DHT22;35426;30.698;104.050;2023-03-23T14:48:10;13.80;99.90
17859;DHT22;35426;30.698;104.050;2023-03-23T14:50:56;13.90;99.90
17859;DHT22;35426;30.698;104.050;2023-03-23T14:53:39;13.80;99.90
17859;DHT22;35426;30.698;104.050;2023-03-23T14:56:16;13.80;99.90
17859;DHT22;35426;30.698;104.050;2023-03-23T14:59:05;13.70;99.90
17859;DHT22;35426;30.698;104.050;2023-03-23T15:01:48;13.60;99.90
17859;DHT22;35426;30.698;104.050;2023-03-23T15:04:31;13.70;99.90
17859;DHT22;35426;30.698;104.050;2023-03-23T15:07:15;13.80;99.90
17859;DHT22;35426;30.698;104.050;2023-03-23T15:09:58;13.70;99.90
17859;DHT22;35426;30.698;104.050;2023-03-23T15:12:37;13.60;99.90
17859;DHT22;35426;30.698;104.050;2023-03-23T15:15:25;13.70;99.90
17859;DHT22;35426;30.698;104.050;2023-03-23T15:21:18;13.70;99.90
17859;DHT22;35426;30.698;104.050;2023-03-23T15:24:01;13.80;99.90
17859;DHT22;35426;30.698;104.050;2023-03-23T15:26:46;13.60;99.90
17859;DHT22;35426;30.698;104.050;2023-03-23T15:29:27;13.50;99.90
17859;DHT22;35426;30.698;104.050;2023-03-23T15:32:22;13.50;99.90
17859;DHT22;35426;30.698;104.050;2023-03-23T15:35:02;13.50;99.90
17859;DHT22;35426;30.698;104.050;2023-03-23T15:37:43;13.10;99.90
17859;DHT22;35426;30.698;104.050;2023-03-23T15:40:20;13.30;99.90
17859;DHT22;35426;30.698;104.050;2023-03-23T15:43:13;13.30;99.90
17859;DHT22;35426;30.698;104.050;2023-03-23T15:45:58;13.50;99.90
17859;DHT22;35426;30.698;104.050;2023-03-23T15:48:52;13.40;99.90
17859;DHT22;35426;30.698;104.050;2023-03-23T15:51:41;13.40;99.90
17859;DHT22;35426;30.698;104.050;2023-03-23T15:54:22;13.30;99.90
17859;DHT22;35426;30.698;104.050;2023-03-23T15:57:02;13.50;99.90
17859;DHT22;35426;30.698;104.050;2023-03-23T15:59:44;13.50;99.90
17859;DHT22;35426;30.698;104.050;2023-03-23T16:02:25;13.30;99.90
17859;DHT22;35426;30.698;104.050;2023-03-23T16:05:08;13.30;99.90
17859;DHT22;35426;30.698;104.050;2023-03-23T16:07:52;13.30;99.90
17859;DHT22;35426;30.698;104.050;2023-03-23T16:10:38;13.50;99.90
17859;DHT22;35426;30.698;104.050;2023-03-23T16:13:17;13.30;99.90
17859;DHT22;35426;30.698;104.050;2023-03-23T16:15:54;13.30;99.90
17859;DHT22;35426;30.698;104.050;2023-03-23T16:18:32;13.50;99.90
17859;DHT22;35426;30.698;104.050;2023-03-23T16:21:32;13.50;99.90
17859;DHT22;35426;30.698;104.050;2023-03-23T16:24:13;13.50;99.90
17859;DHT22;35426;30.698;104.050;2023-03-23T16:26:53;13.50;99.90
17859;DHT22;35426;30.698;104.050;2023-03-23T16:29:39;13.60;99.90
17859;DHT22;35426;30.698;104.050;2023-03-23T16:32:35;13.60;99.90
17859;DHT22;35426;30.698;104.050;2023-03-23T16:35:11;13.60;99.90
17859;DHT22;35426;30.698;104.050;2023-03-23T16:38:10;13.60;99.90
17859;DHT22;35426;30.698;104.050;2023-03-23T16:40:52;13.60;99.90
17859;DHT22;35426;30.698;104.050;2023-03-23T16:43:31;13.60;99.90
17859;DHT22;35426;30.698;104.050;2023-03-23T16:46:11;13.50;99.90
17859;DHT22;35426;30.698;104.050;2023-03-23T16:48:48;13.50;99.90
17859;DHT22;35426;30.698;104.050;2023-03-23T16:51:26;13.50;99.90
17859;DHT22;35426;30.698;104.050;2023-03-23T16:54:06;13.60;99.90
17859;DHT22;35426;30.698;104.050;2023-03-23T16:56:46;13.60;99.90
17859;DHT22;35426;30.698;104.050;2023-03-23T16:59:29;13.60;99.90
17859;DHT22;35426;30.698;104.050;2023-03-23T17:02:10;13.60;99.90
17859;DHT22;35426;30.698;104.050;2023-03-23T17:04:51;13.60;99.90
17859;DHT22;35426;30.698;104.050;2023-03-23T17:07:29;13.70;99.90
17859;DHT22;35426;30.698;104.050;2023-03-23T17:10:09;13.70;99.90
17859;DHT22;35426;30.698;104.050;2023-03-23T17:12:51;13.70;99.90
17859;DHT22;35426;30.698;104.050;2023-03-23T17:15:40;13.70;99.90